Time;durP1;ratioP1;P1;durP2;ratioP2;P2;SDS_P1;SDS_P2;PMS_P1;PMS_P2;Temp;Humidity;BMP_temperature;BMP_pressure;BME280_temperature;BME280_humidity;BME280_pressure;Samples;Min_cycle;Max_cycle;Signal;HPM_P1;HPM_P2
2023/12/21 00:00:13;;;;;;;21.77;13.70;;;;;;;-142.91;100.00;56616.03;5079176;28;20332;-78
2023/12/21 00:02:41;;;;;;;27.73;15.82;;;;;;;-142.91;100.00;56616.03;5074430;28;20608;-75
2023/12/21 00:05:09;;;;;;;24.85;14.38;;;;;;;23.25;100.00;56616.03;5082899;28;20207;-75
2023/12/21 00:07:35;;;;;;;25.80;15.82;;;;;;;;;;5077757;28;20308;-77
2023/12/21 00:10:03;;;;;;;23.70;15.07;;;;;;;-142.91;100.00;56616.03;5082813;28;20217;-77
2023/12/21 00:12:29;;;;;;;24.60;14.60;;;;;;;-142.91;100.00;56616.03;5083204;28;20470;-76
2023/12/21 00:14:56;;;;;;;25.40;15.70;;;;;;;;;;5079674;28;20198;-77
2023/12/21 00:17:22;;;;;;;29.60;16.42;;;;;;;-142.91;100.00;56616.03;5083924;28;20229;-78
2023/12/21 00:19:50;;;;;;;23.33;14.90;;;;;;;-142.91;100.00;56616.03;5079104;28;20697;-77
2023/12/21 00:22:17;;;;;;;27.05;15.95;;;;;;;-142.91;100.00;56616.03;5079501;28;20762;-77
2023/12/21 00:24:44;;;;;;;25.55;15.98;;;;;;;-142.91;100.00;56616.03;5080097;28;20579;-78
2023/12/21 00:27:09;;;;;;;25.10;15.80;;;;;;;-142.91;100.00;56616.03;5084786;28;20277;-79
2023/12/21 00:29:36;;;;;;;22.52;15.73;;;;;;;-142.91;100.00;56616.03;5085543;28;20189;-78
2023/12/21 00:32:02;;;;;;;23.45;15.63;;;;;;;;;;5084781;28;20312;-79
2023/12/21 00:34:29;;;;;;;26.17;17.05;;;;;;;-142.91;100.00;56616.03;5086997;28;20248;-77
2023/12/21 00:36:57;;;;;;;31.85;19.13;;;;;;;-142.91;100.00;56616.03;5081718;28;20745;-78
2023/12/21 00:39:24;;;;;;;33.50;18.95;;;;;;;-142.91;100.00;56616.03;5077297;28;20297;-78
2023/12/21 00:41:51;;;;;;;29.85;18.92;;;;;;;;;;5076281;28;20221;-77
2023/12/21 00:44:17;;;;;;;31.33;20.00;;;;;;;-142.91;100.00;56616.03;5079556;28;20241;-77
2023/12/21 00:46:44;;;;;;;29.92;19.13;;;;;;;-142.91;100.00;56616.03;5079905;28;20301;-78
2023/12/21 00:49:10;;;;;;;27.88;18.98;;;;;;;-142.91;100.00;56616.03;5077711;28;20289;-76
2023/12/21 00:51:37;;;;;;;37.53;20.20;;;;;;;;;;5083944;28;20309;-78
2023/12/21 00:54:05;;;;;;;31.23;19.40;;;;;;;-142.91;100.00;56616.03;5086828;28;20239;-77
2023/12/21 00:56:33;;;;;;;32.22;19.17;;;;;;;-142.91;100.00;56616.03;5084790;28;20320;-77
2023/12/21 00:59:00;;;;;;;34.67;20.25;;;;;;;-142.91;100.00;56616.03;5087188;28;20290;-77
2023/12/21 01:01:27;;;;;;;35.70;20.52;;;;;;;-142.91;100.00;56616.03;5084951;28;20209;-76
2023/12/21 01:03:54;;;;;;;35.50;20.15;;;;;;;-142.91;100.00;56616.03;5089928;28;20567;-76
2023/12/21 01:06:20;;;;;;;33.05;20.33;;;;;;;;;;5090082;28;20201;-79
2023/12/21 01:08:47;;;;;;;32.05;19.92;;;;;;;-142.91;100.00;56616.03;5090260;28;20230;-78
2023/12/21 01:11:15;;;;;;;31.80;20.73;;;;;;;-142.91;100.00;56616.03;5089398;28;20272;-76
2023/12/21 01:13:41;;;;;;;34.88;20.80;;;;;;;-142.91;100.00;56616.03;5064894;28;20579;-77
2023/12/21 01:16:09;;;;;;;36.85;21.52;;;;;;;-142.91;100.00;56616.03;5072577;28;20237;-77
2023/12/21 01:18:36;;;;;;;39.47;21.08;;;;;;;;;;5074859;28;20210;-77
2023/12/21 01:21:02;;;;;;;30.00;20.77;;;;;;;-142.91;100.00;56616.03;5065288;28;20226;-76
2023/12/21 01:23:29;;;;;;;31.80;20.95;;;;;;;-142.91;100.00;56616.03;5066117;28;20292;-75
2023/12/21 01:25:55;;;;;;;38.20;21.60;;;;;;;-142.91;100.00;56616.03;5071891;28;20213;-76
2023/12/21 01:28:23;;;;;;;32.13;20.17;;;;;;;;;;5080782;28;20217;-77
2023/12/21 01:30:50;;;;;;;37.60;21.45;;;;;;;-142.91;100.00;56616.03;5077530;28;20293;-76
2023/12/21 01:33:17;;;;;;;35.00;22.42;;;;;;;-142.91;100.00;56616.03;5083809;28;20261;-76
2023/12/21 01:35:43;;;;;;;36.67;20.92;;;;;;;23.41;100.00;56616.03;5077629;28;20286;-76
2023/12/21 01:38:10;;;;;;;37.88;21.73;;;;;;;-142.91;100.00;56616.03;5083830;28;20289;-78
2023/12/21 01:40:36;;;;;;;34.25;19.75;;;;;;;;;;5084089;28;21836;-77
2023/12/21 01:43:03;;;;;;;31.77;20.73;;;;;;;;;;5079006;28;20304;-77
2023/12/21 01:45:31;;;;;;;34.47;21.60;;;;;;;-142.91;100.00;56616.03;5075618;28;20210;-76
2023/12/21 01:47:58;;;;;;;33.10;21.42;;;;;;;-142.91;100.00;56616.03;5057633;28;20794;-76
2023/12/21 01:50:26;;;;;;;33.55;20.15;;;;;;;;;;5044243;28;20198;-75
2023/12/21 01:52:55;;;;;;;38.67;21.95;;;;;;;;;;5073579;28;20683;-76
2023/12/21 01:55:23;;;;;;;34.05;21.45;;;;;;;-142.91;100.00;56616.03;5078279;28;20216;-79
2023/12/21 01:57:50;;;;;;;38.33;23.85;;;;;;;-142.91;100.00;56616.03;5078985;28;20259;-76
2023/12/21 02:00:17;;;;;;;38.17;22.95;;;;;;;-142.91;100.00;56616.03;5080312;28;20222;-77
2023/12/21 02:02:46;;;;;;;38.00;23.42;;;;;;;-142.91;100.00;56616.03;5080421;28;20284;-77
2023/12/21 02:05:12;;;;;;;42.67;21.40;;;;;;;-142.91;100.00;56616.03;5081498;28;20233;-77
2023/12/21 02:07:40;;;;;;;41.63;23.70;;;;;;;-142.91;100.00;56616.03;5082996;28;20661;-77
2023/12/21 02:10:09;;;;;;;38.58;23.33;;;;;;;-142.91;100.00;56616.03;5082741;28;20373;-76
2023/12/21 02:12:36;;;;;;;39.33;23.23;;;;;;;-142.91;100.00;56616.03;5086695;28;20641;-75
2023/12/21 02:15:03;;;;;;;38.63;24.08;;;;;;;-142.91;100.00;56616.03;5085819;28;20308;-77
2023/12/21 02:17:30;;;;;;;39.33;24.02;;;;;;;-142.91;100.00;56616.03;5066965;28;20316;-76
2023/12/21 02:20:00;;;;;;;37.33;23.08;;;;;;;-142.91;100.00;56616.03;5073739;28;20332;-78
2023/12/21 02:22:28;;;;;;;40.28;23.65;;;;;;;-142.91;100.00;56616.03;5086519;28;20316;-77
2023/12/21 02:24:56;;;;;;;37.60;23.52;;;;;;;-142.91;100.00;56616.03;5085972;28;20208;-77
2023/12/21 02:27:23;;;;;;;37.97;24.40;;;;;;;-142.91;100.00;56616.03;5088248;28;20229;-76
2023/12/21 02:29:50;;;;;;;39.35;23.27;;;;;;;-142.91;100.00;56616.03;5094932;28;20266;-76
2023/12/21 02:32:16;;;;;;;38.53;21.90;;;;;;;-142.91;100.00;56616.03;5095458;28;20261;-77
2023/12/21 02:34:43;;;;;;;43.25;26.17;;;;;;;-142.91;100.00;56616.03;5091714;28;20240;-77
2023/12/21 02:37:10;;;;;;;39.47;24.67;;;;;;;-142.91;100.00;56616.03;5091612;28;20236;-76
2023/12/21 02:39:36;;;;;;;36.92;23.73;;;;;;;-142.91;100.00;56616.03;5081980;28;20337;-76
2023/12/21 02:42:05;;;;;;;44.33;24.98;;;;;;;-142.91;100.00;56616.03;5042026;28;20259;-77
2023/12/21 02:44:32;;;;;;;43.35;23.98;;;;;;;-142.91;100.00;56616.03;5066497;28;20233;-75
2023/12/21 02:46:58;;;;;;;40.42;23.63;;;;;;;-142.91;100.00;56616.03;5072745;28;20689;-76
2023/12/21 02:49:25;;;;;;;38.60;24.55;;;;;;;-142.91;100.00;56616.03;5085039;28;20198;-76
2023/12/21 02:51:52;;;;;;;37.35;22.45;;;;;;;-142.91;100.00;56616.03;5085495;28;20383;-78
2023/12/21 02:54:18;;;;;;;34.45;22.55;;;;;;;-142.91;100.00;56616.03;5087365;28;20284;-77
2023/12/21 02:56:45;;;;;;;36.88;23.30;;;;;;;-142.91;100.00;56616.03;5088331;28;20225;-79
2023/12/21 02:59:14;;;;;;;40.85;24.48;;;;;;;-142.91;100.00;56616.03;5087387;28;20236;-78
2023/12/21 03:01:42;;;;;;;39.33;22.17;;;;;;;-142.91;100.00;56616.03;5088187;28;20270;-78
2023/12/21 03:04:10;;;;;;;34.30;21.20;;;;;;;-142.91;100.00;56616.03;5087417;28;20288;-78
2023/12/21 03:06:36;;;;;;;37.28;22.63;;;;;;;-142.91;100.00;56616.03;5086750;28;20730;-77
2023/12/21 03:09:03;;;;;;;34.40;22.20;;;;;;;-142.91;100.00;56616.03;5087846;28;20288;-81
2023/12/21 03:11:30;;;;;;;35.17;21.08;;;;;;;23.26;100.00;56616.03;5091663;28;20194;-78
2023/12/21 03:13:56;;;;;;;32.03;22.15;;;;;;;-142.91;100.00;56616.03;5088433;28;20293;-78
2023/12/21 03:16:24;;;;;;;39.28;24.23;;;;;;;-142.91;100.00;56616.03;5087635;28;20289;-78
2023/12/21 03:18:51;;;;;;;34.00;20.95;;;;;;;;;;5087521;28;20241;-77
2023/12/21 03:21:17;;;;;;;34.30;21.38;;;;;;;-142.91;100.00;56616.03;5089658;28;20328;-79
2023/12/21 03:23:44;;;;;;;33.63;18.77;;;;;;;-142.91;100.00;56616.03;5087446;28;20284;-79
2023/12/21 03:26:11;;;;;;;32.83;20.45;;;;;;;-142.91;100.00;56616.03;5087756;28;20229;-77
2023/12/21 03:28:44;;;;;;;32.60;20.65;;;;;;;-142.91;100.00;56616.03;5087233;28;20754;-78
2023/12/21 03:31:11;;;;;;;32.83;20.55;;;;;;;-142.91;100.00;56616.03;5088063;28;20204;-78
2023/12/21 03:33:39;;;;;;;29.83;20.30;;;;;;;-142.91;100.00;56616.03;5088756;28;20285;-78
2023/12/21 03:36:06;;;;;;;32.78;20.40;;;;;;;-142.91;100.00;56616.03;5088702;28;20259;-78
2023/12/21 03:38:33;;;;;;;29.70;18.35;;;;;;;-142.91;100.00;56616.03;5087094;28;20221;-78
2023/12/21 03:40:59;;;;;;;33.15;20.42;;;;;;;-142.91;100.00;56616.03;5086383;28;20306;-77
2023/12/21 03:43:26;;;;;;;33.25;20.63;;;;;;;-142.91;100.00;56616.03;5086807;28;20797;-78
2023/12/21 03:45:53;;;;;;;27.35;18.90;;;;;;;-142.91;100.00;56616.03;5087443;28;20275;-78
2023/12/21 03:48:20;;;;;;;28.98;19.55;;;;;;;-142.91;100.00;56616.03;5087295;28;20201;-78
2023/12/21 03:50:48;;;;;;;30.33;20.23;;;;;;;-142.91;100.00;56616.03;5087623;28;20244;-79
2023/12/21 03:53:16;;;;;;;31.88;19.92;;;;;;;;;;5086085;28;20276;-78
2023/12/21 03:55:43;;;;;;;35.42;19.95;;;;;;;-142.91;100.00;56616.03;5084360;28;20219;-78
2023/12/21 03:58:10;;;;;;;34.05;19.75;;;;;;;-142.91;100.00;56616.03;5081468;28;20673;-78
2023/12/21 04:00:37;;;;;;;29.15;19.02;;;;;;;-142.91;100.00;56616.03;5085744;28;20289;-77
2023/12/21 04:03:04;;;;;;;33.05;20.10;;;;;;;-142.91;100.00;56616.03;5085330;28;20209;-78
2023/12/21 04:05:31;;;;;;;28.52;18.98;;;;;;;-142.91;100.00;56616.03;5086782;28;20291;-78
2023/12/21 04:07:59;;;;;;;31.48;19.25;;;;;;;-142.91;100.00;56616.03;5087717;28;20279;-78
2023/12/21 04:10:27;;;;;;;31.45;19.90;;;;;;;-142.91;100.00;56616.03;5087320;28;20225;-78
2023/12/21 04:12:53;;;;;;;29.60;18.25;;;;;;;;;;5086884;28;20616;-79
2023/12/21 04:15:20;;;;;;;25.58;15.82;;;;;;;-142.91;100.00;56616.03;5088180;28;20293;-78
2023/12/21 04:17:46;;;;;;;22.63;15.70;;;;;;;-142.91;100.00;56616.03;5091530;28;20248;-80
2023/12/21 04:20:13;;;;;;;23.15;14.98;;;;;;;-142.91;100.00;56616.03;5087170;28;20209;-79
2023/12/21 04:22:40;;;;;;;25.98;15.38;;;;;;;-142.91;100.00;56616.03;5086123;28;20251;-78
2023/12/21 04:25:09;;;;;;;17.85;13.52;;;;;;;-142.91;100.00;56616.03;5085939;28;20283;-81
2023/12/21 04:27:35;;;;;;;20.42;13.45;;;;;;;-142.91;100.00;56616.03;5081173;28;20817;-78
2023/12/21 04:30:02;;;;;;;16.90;12.50;;;;;;;-142.91;100.00;56616.03;5086038;28;20234;-78
2023/12/21 04:32:29;;;;;;;16.40;12.80;;;;;;;-142.91;100.00;56616.03;5086321;28;20260;-79
2023/12/21 04:34:57;;;;;;;18.00;12.23;;;;;;;-142.91;100.00;56616.03;5086641;28;20298;-79
2023/12/21 04:37:24;;;;;;;16.90;11.80;;;;;;;-142.91;100.00;56616.03;5086675;28;20209;-78
2023/12/21 04:39:50;;;;;;;20.88;13.45;;;;;;;-142.91;100.00;56616.03;5086949;28;20280;-78
2023/12/21 04:42:20;;;;;;;17.35;12.10;;;;;;;-142.91;100.00;56616.03;5081789;28;20316;-78
2023/12/21 04:44:46;;;;;;;17.02;11.90;;;;;;;-142.91;100.00;56616.03;5085778;28;20746;-78
2023/12/21 04:47:19;;;;;;;15.75;10.80;;;;;;;-142.91;100.00;56616.03;5086670;28;20229;-78
2023/12/21 04:49:46;;;;;;;14.10;10.75;;;;;;;-142.91;100.00;56616.03;5086124;28;20755;-79
2023/12/21 04:52:13;;;;;;;13.85;10.95;;;;;;;-142.91;100.00;56616.03;5086746;28;20289;-78
2023/12/21 04:54:40;;;;;;;17.67;11.18;;;;;;;-142.91;100.00;56616.03;5086116;28;20296;-79
2023/12/21 04:57:07;;;;;;;17.25;10.35;;;;;;;-142.91;100.00;56616.03;5087380;28;20280;-78
2023/12/21 04:59:35;;;;;;;15.52;10.95;;;;;;;-142.91;100.00;56616.03;5085732;28;20294;-78
2023/12/21 05:02:02;;;;;;;16.67;11.60;;;;;;;-142.91;100.00;56616.03;5087403;28;20313;-79
2023/12/21 05:04:28;;;;;;;16.25;10.73;;;;;;;-142.91;100.00;56616.03;5083788;28;20194;-79
2023/12/21 05:06:56;;;;;;;11.63;9.70;;;;;;;-142.91;100.00;56616.03;5082473;28;21043;-80
2023/12/21 05:09:23;;;;;;;14.90;10.98;;;;;;;-142.91;100.00;56616.03;5086916;28;20190;-78
2023/12/21 05:11:50;;;;;;;15.55;10.15;;;;;;;-142.91;100.00;56616.03;5086837;28;20284;-78
2023/12/21 05:14:16;;;;;;;11.35;9.02;;;;;;;-142.91;100.00;56616.03;5086188;28;20240;-79
2023/12/21 05:16:44;;;;;;;13.60;9.43;;;;;;;-142.91;100.00;56616.03;5086456;28;20754;-78
2023/12/21 05:19:11;;;;;;;11.63;9.23;;;;;;;-142.91;100.00;56616.03;5085812;28;20244;-78
2023/12/21 05:21:38;;;;;;;12.52;8.95;;;;;;;-142.91;100.00;56616.03;5085205;28;20260;-79
2023/12/21 05:24:04;;;;;;;12.02;8.80;;;;;;;-142.91;100.00;56616.03;5087218;28;20233;-77
2023/12/21 05:26:31;;;;;;;10.10;8.25;;;;;;;-142.91;100.00;56616.03;5088410;28;21394;-78
2023/12/21 05:28:58;;;;;;;10.45;9.02;;;;;;;-142.91;100.00;56616.03;5087609;28;20205;-80
2023/12/21 05:31:24;;;;;;;11.15;8.20;;;;;;;;;;5084758;28;20227;-78
2023/12/21 05:33:52;;;;;;;9.27;8.38;;;;;;;-142.91;100.00;56616.03;5086349;28;20225;-77
2023/12/21 05:36:22;;;;;;;12.10;9.02;;;;;;;-142.91;100.00;56616.03;5084915;28;20277;-79
2023/12/21 05:38:49;;;;;;;11.85;8.50;;;;;;;-142.91;100.00;56616.03;5084617;28;20221;-78
2023/12/21 05:41:16;;;;;;;13.77;9.23;;;;;;;-142.91;100.00;56616.03;5084560;28;20284;-78
2023/12/21 05:43:42;;;;;;;8.73;7.85;;;;;;;;;;5083823;28;20268;-78
2023/12/21 05:46:09;;;;;;;11.13;10.02;;;;;;;-142.91;100.00;56616.03;5083438;28;20289;-78
2023/12/21 05:48:36;;;;;;;14.13;9.80;;;;;;;-142.91;100.00;56616.03;5084540;28;20289;-80
2023/12/21 05:51:04;;;;;;;17.02;10.65;;;;;;;-142.91;100.00;56616.03;5088482;28;20236;-80
2023/12/21 05:53:32;;;;;;;16.05;10.65;;;;;;;-142.91;100.00;56616.03;5084132;28;20230;-79
2023/12/21 05:55:59;;;;;;;15.40;10.13;;;;;;;;;;5082845;28;20299;-80
2023/12/21 05:58:26;;;;;;;13.85;9.85;;;;;;;23.25;100.00;56616.03;5083248;28;20301;-78
2023/12/21 06:00:52;;;;;;;14.40;10.13;;;;;;;-142.91;100.00;56616.03;5083486;28;20285;-78
2023/12/21 06:03:20;;;;;;;14.38;9.82;;;;;;;-142.91;100.00;56616.03;5084345;28;20249;-79
2023/12/21 06:05:46;;;;;;;13.45;9.00;;;;;;;-142.91;100.00;56616.03;5084892;28;20297;-82
2023/12/21 06:08:14;;;;;;;14.77;8.85;;;;;;;;;;5083816;28;20656;-81
2023/12/21 06:10:41;;;;;;;12.00;9.27;;;;;;;-142.91;100.00;56616.03;5084224;28;20310;-79
2023/12/21 06:13:07;;;;;;;13.32;9.65;;;;;;;;;;5083264;28;20639;-81
2023/12/21 06:15:34;;;;;;;17.35;9.77;;;;;;;-142.91;100.00;56616.03;5085611;28;20200;-81
2023/12/21 06:18:00;;;;;;;13.25;9.80;;;;;;;-142.91;100.00;56616.03;5088379;28;20233;-81
2023/12/21 06:20:27;;;;;;;14.48;10.48;;;;;;;-142.91;100.00;56616.03;5087419;28;20342;-78
2023/12/21 06:22:54;;;;;;;16.30;10.65;;;;;;;-142.91;100.00;56616.03;5087696;28;20221;-81
2023/12/21 06:25:22;;;;;;;20.65;13.85;;;;;;;-142.91;100.00;56616.03;5088607;28;20221;-79
2023/12/21 06:27:49;;;;;;;25.02;15.02;;;;;;;-142.91;100.00;56616.03;5083724;28;20285;-80
2023/12/21 06:30:15;;;;;;;20.27;12.00;;;;;;;-142.91;100.00;56616.03;5087488;28;20193;-80
2023/12/21 06:32:42;;;;;;;17.08;10.70;;;;;;;-142.91;100.00;56616.03;5088316;28;20225;-80
2023/12/21 06:35:09;;;;;;;18.63;11.93;;;;;;;-142.91;100.00;56616.03;5088621;28;20301;-80
2023/12/21 06:37:35;;;;;;;15.38;10.05;;;;;;;-142.91;100.00;56616.03;5089324;28;20293;-80
2023/12/21 06:40:04;;;;;;;14.52;9.82;;;;;;;-142.91;100.00;56616.03;5086450;28;20771;-82
2023/12/21 06:42:32;;;;;;;11.63;9.27;;;;;;;-142.91;100.00;56616.03;5088758;28;20225;-80
2023/12/21 06:44:58;;;;;;;11.35;9.02;;;;;;;-142.91;100.00;56616.03;5087431;28;20292;-79
2023/12/21 06:47:25;;;;;;;15.65;10.95;;;;;;;-142.91;100.00;56616.03;5089145;28;20297;-81
2023/12/21 06:49:51;;;;;;;12.55;9.38;;;;;;;;;;5087421;28;20212;-78
2023/12/21 06:55:00;;;;;;;14.77;8.30;;;;;;;23.25;100.00;56616.03;5087879;28;20270;-79
2023/12/21 06:57:27;;;;;;;11.82;9.75;;;;;;;-142.91;100.00;56616.03;5092087;28;20206;-79
2023/12/21 06:59:55;;;;;;;11.60;8.73;;;;;;;-142.91;100.00;56616.03;5087263;28;20225;-79
2023/12/21 07:02:21;;;;;;;11.02;7.45;;;;;;;;;;5087531;28;20785;-78
2023/12/21 07:04:48;;;;;;;10.95;8.18;;;;;;;23.57;100.00;56616.03;5087973;28;20240;-80
2023/12/21 07:07:14;;;;;;;8.80;7.90;;;;;;;-142.91;100.00;56616.03;5086731;28;20288;-81
2023/12/21 07:09:41;;;;;;;10.30;7.95;;;;;;;;;;5082954;28;20308;-82
2023/12/21 07:12:08;;;;;;;13.40;8.02;;;;;;;;;;5085415;28;20583;-78
2023/12/21 07:14:35;;;;;;;10.18;7.50;;;;;;;-142.91;100.00;56616.03;5087426;28;20221;-79
2023/12/21 07:17:03;;;;;;;9.70;7.80;;;;;;;-142.91;100.00;56616.03;5086807;28;20198;-79
2023/12/21 07:19:30;;;;;;;11.85;7.45;;;;;;;-142.91;100.00;56616.03;5087422;28;20713;-80
2023/12/21 07:21:56;;;;;;;8.85;6.75;;;;;;;;;;5087405;28;20234;-81
2023/12/21 07:24:23;;;;;;;13.63;7.45;;;;;;;-142.91;100.00;56616.03;5087908;28;20652;-81
2023/12/21 07:26:49;;;;;;;8.50;7.38;;;;;;;-142.91;100.00;56616.03;5087895;28;20232;-81
2023/12/21 07:29:17;;;;;;;8.88;7.28;;;;;;;-142.91;100.00;56616.03;5087479;28;20202;-80
2023/12/21 07:31:43;;;;;;;9.73;6.22;;;;;;;23.25;100.00;56616.03;5086666;28;20311;-82
2023/12/21 07:34:11;;;;;;;7.75;7.05;;;;;;;-142.91;100.00;56616.03;5087688;28;20240;-82
2023/12/21 07:36:38;;;;;;;9.60;7.97;;;;;;;23.26;100.00;56616.03;5086201;28;20244;-80
2023/12/21 07:39:05;;;;;;;8.25;7.45;;;;;;;23.26;100.00;56616.03;5086571;28;20726;-80
2023/12/21 07:41:33;;;;;;;10.00;7.82;;;;;;;-142.91;100.00;56616.03;5087352;28;20206;-81
2023/12/21 07:43:59;;;;;;;8.52;7.03;;;;;;;23.26;100.00;56616.03;5086874;28;20778;-82
2023/12/21 07:46:26;;;;;;;8.10;7.13;;;;;;;-142.91;100.00;56616.03;5087796;28;20259;-81
2023/12/21 07:48:53;;;;;;;6.38;5.53;;;;;;;23.26;100.00;56616.03;5089197;28;20286;-81
2023/12/21 07:51:21;;;;;;;7.13;5.78;;;;;;;-142.91;100.00;56616.03;5087436;28;20778;-82
2023/12/21 07:53:47;;;;;;;7.22;6.53;;;;;;;-142.91;100.00;56616.03;5086767;28;20263;-79
2023/12/21 07:56:15;;;;;;;8.90;7.20;;;;;;;23.25;100.00;56616.03;5087000;28;20314;-82
2023/12/21 07:58:42;;;;;;;8.35;6.45;;;;;;;-142.91;100.00;56616.03;5086272;28;20328;-82
2023/12/21 08:01:08;;;;;;;11.15;6.32;;;;;;;-142.91;100.00;56616.03;5085644;28;20618;-80
2023/12/21 08:03:35;;;;;;;7.45;6.60;;;;;;;-142.91;100.00;56616.03;5086118;28;20308;-80
2023/12/21 08:06:02;;;;;;;7.72;6.47;;;;;;;-142.91;100.00;56616.03;5086445;28;20232;-80
2023/12/21 08:08:30;;;;;;;7.25;6.45;;;;;;;-142.91;100.00;56616.03;5087064;28;20667;-79
2023/12/21 08:10:56;;;;;;;9.63;6.32;;;;;;;;;;5086696;28;20226;-80
2023/12/21 08:13:23;;;;;;;7.22;6.50;;;;;;;-142.91;100.00;56616.03;5087222;28;20737;-81
2023/12/21 08:15:51;;;;;;;7.20;6.47;;;;;;;-142.91;100.00;56616.03;5085704;28;20229;-80
2023/12/21 08:18:24;;;;;;;10.02;6.57;;;;;;;-142.91;100.00;56616.03;5085850;28;21748;-80
2023/12/21 08:20:51;;;;;;;9.35;7.10;;;;;;;-142.91;100.00;56616.03;5089219;28;20687;-79
2023/12/21 08:23:17;;;;;;;7.78;6.47;;;;;;;-142.91;100.00;56616.03;5085599;28;20762;-81
2023/12/21 08:25:45;;;;;;;6.95;6.25;;;;;;;;;;5086874;28;20248;-80
2023/12/21 08:28:12;;;;;;;8.35;6.80;;;;;;;-142.91;100.00;56616.03;5084891;28;20237;-79
2023/12/21 08:30:41;;;;;;;11.30;5.70;;;;;;;-142.91;100.00;56616.03;5085365;28;20309;-80
2023/12/21 08:33:08;;;;;;;7.75;5.97;;;;;;;-142.91;100.00;56616.03;5086005;28;20245;-82
2023/12/21 08:35:34;;;;;;;6.40;5.65;;;;;;;-142.91;100.00;56616.03;5086472;28;20288;-82
2023/12/21 08:38:01;;;;;;;8.27;5.85;;;;;;;-142.91;100.00;56616.03;5084968;28;20285;-80
2023/12/21 08:40:28;;;;;;;10.90;4.60;;;;;;;-142.91;100.00;56616.03;5085078;28;20280;-83
2023/12/21 08:42:55;;;;;;;6.85;4.82;;;;;;;-142.91;100.00;56616.03;5084628;28;20245;-79
2023/12/21 08:45:22;;;;;;;6.20;5.13;;;;;;;-142.91;100.00;56616.03;5086273;28;20248;-79
2023/12/21 08:47:49;;;;;;;5.30;4.80;;;;;;;23.25;100.00;56616.03;5085623;28;20204;-80
2023/12/21 08:50:16;;;;;;;5.45;4.95;;;;;;;-142.91;100.00;56616.03;5085305;28;20262;-82
2023/12/21 08:52:42;;;;;;;5.50;4.97;;;;;;;-142.91;100.00;56616.03;5086868;28;20251;-80
2023/12/21 08:55:09;;;;;;;5.97;4.40;;;;;;;;;;5085112;28;20213;-80
2023/12/21 08:57:37;;;;;;;4.80;4.40;;;;;;;-142.91;100.00;56616.03;5085802;28;20236;-81
2023/12/21 09:00:10;;;;;;;4.72;4.32;;;;;;;-142.91;100.00;56616.03;5085656;28;20715;-80
2023/12/21 09:02:37;;;;;;;6.03;4.28;;;;;;;;;;5084717;28;20746;-80
2023/12/21 09:05:03;;;;;;;4.72;4.03;;;;;;;;;;5086199;28;20744;-80
2023/12/21 09:07:31;;;;;;;5.65;5.07;;;;;;;-142.91;100.00;56616.03;5085788;28;20229;-79
2023/12/21 09:09:57;;;;;;;4.72;4.30;;;;;;;-142.91;100.00;56616.03;5085250;28;20707;-79
2023/12/21 09:12:24;;;;;;;5.70;3.95;;;;;;;;;;5083896;28;20229;-80
2023/12/21 09:14:51;;;;;;;4.80;4.40;;;;;;;-142.91;100.00;56616.03;5083756;28;20212;-80
2023/12/21 09:20:00;;;;;;;5.35;4.85;;;;;;;-142.91;100.00;56616.03;5073610;28;20193;-80
2023/12/21 09:22:27;;;;;;;5.75;5.15;;;;;;;-142.91;100.00;56616.03;5083740;28;20229;-82
2023/12/21 09:24:53;;;;;;;6.07;5.03;;;;;;;23.25;100.00;56616.03;5081575;28;20337;-82
2023/12/21 09:27:20;;;;;;;5.53;4.85;;;;;;;-142.91;100.00;56616.03;5083200;28;20224;-83
2023/12/21 09:29:47;;;;;;;6.75;4.97;;;;;;;-142.91;100.00;56616.03;5078208;28;20232;-85
2023/12/21 09:32:13;;;;;;;5.78;5.25;;;;;;;-142.91;100.00;56616.03;5079422;28;20267;-83
2023/12/21 09:34:41;;;;;;;6.30;5.30;;;;;;;-142.91;100.00;56616.03;5073695;28;20233;-78
2023/12/21 09:37:08;;;;;;;10.90;5.05;;;;;;;-142.91;100.00;56616.03;5068567;28;20297;-79
2023/12/21 09:39:36;;;;;;;6.05;5.30;;;;;;;-142.91;100.00;56616.03;5085918;28;20225;-84
2023/12/21 09:42:04;;;;;;;7.05;5.10;;;;;;;-142.91;100.00;56616.03;5085861;28;20912;-81
2023/12/21 09:44:31;;;;;;;9.40;5.75;;;;;;;-142.91;100.00;56616.03;5085455;28;21093;-83
2023/12/21 09:46:59;;;;;;;9.82;5.32;;;;;;;-142.91;100.00;56616.03;5087429;28;20279;-83
2023/12/21 09:49:27;;;;;;;4.78;4.38;;;;;;;;;;5085252;28;20225;-81
2023/12/21 09:51:56;;;;;;;6.88;5.03;;;;;;;-142.91;100.00;56616.03;5085680;28;20205;-82
2023/12/21 09:54:23;;;;;;;4.40;4.10;;;;;;;-142.91;100.00;56616.03;5088815;28;20531;-80
2023/12/21 09:56:51;;;;;;;4.30;4.00;;;;;;;-142.91;100.00;56616.03;5087093;28;20626;-84
2023/12/21 09:59:18;;;;;;;4.45;4.05;;;;;;;-142.91;100.00;56616.03;5087299;28;20197;-80
2023/12/21 10:01:44;;;;;;;5.05;4.60;;;;;;;-142.91;100.00;56616.03;5078887;28;20595;-81
2023/12/21 10:04:11;;;;;;;4.97;4.47;;;;;;;-142.91;100.00;56616.03;5088900;28;20329;-81
2023/12/21 10:06:38;;;;;;;7.65;4.18;;;;;;;-142.91;100.00;56616.03;5073165;28;20214;-80
2023/12/21 10:09:06;;;;;;;4.90;4.43;;;;;;;-142.91;100.00;56616.03;5087305;28;20236;-80
2023/12/21 10:11:33;;;;;;;4.20;3.83;;;;;;;-142.91;100.00;56616.03;5089719;28;20678;-83
2023/12/21 10:14:01;;;;;;;5.55;4.38;;;;;;;-142.91;100.00;56616.03;5088023;28;20225;-81
2023/12/21 10:16:27;;;;;;;4.40;3.97;;;;;;;;;;5090507;28;20205;-85
2023/12/21 10:18:54;;;;;;;5.10;3.58;;;;;;;-142.91;100.00;56616.03;5088494;28;20278;-84
2023/12/21 10:21:22;;;;;;;4.22;3.90;;;;;;;-142.91;100.00;56616.03;5089821;28;20212;-84
2023/12/21 10:23:50;;;;;;;8.68;4.20;;;;;;;-142.91;100.00;56616.03;5089094;28;20232;-84
2023/12/21 10:26:18;;;;;;;6.22;4.72;;;;;;;-142.91;100.00;56616.03;5083792;28;20517;-84
2023/12/21 10:28:47;;;;;;;3.83;3.53;;;;;;;;;;5090020;28;21031;-82
2023/12/21 10:31:14;;;;;;;4.78;3.90;;;;;;;;;;5084145;28;20372;-76
2023/12/21 10:33:42;;;;;;;6.75;4.20;;;;;;;;;;5087405;28;20201;-77
2023/12/21 10:36:09;;;;;;;29.00;15.95;;;;;;;-142.91;100.00;56616.03;5082194;28;20292;-77
2023/12/21 10:38:37;;;;;;;11.80;8.48;;;;;;;-142.91;100.00;56616.03;5086703;28;20225;-77
2023/12/21 10:41:05;;;;;;;5.65;4.18;;;;;;;-142.91;100.00;56616.03;5086801;28;20297;-76
2023/12/21 10:43:37;;;;;;;8.63;4.65;;;;;;;-142.91;100.00;56616.03;5087695;28;20728;-78
2023/12/21 10:46:04;;;;;;;4.10;3.70;;;;;;;;;;5070386;28;20210;-78
2023/12/21 10:48:33;;;;;;;4.10;3.70;;;;;;;-142.91;100.00;56616.03;5080222;28;20663;-80
2023/12/21 10:50:59;;;;;;;3.30;3.00;;;;;;;;;;5077015;28;20283;-78
2023/12/21 10:53:26;;;;;;;4.45;4.07;;;;;;;;;;5066914;28;20221;-77
2023/12/21 10:55:54;;;;;;;4.22;3.92;;;;;;;;;;5079702;28;20293;-77
2023/12/21 10:58:22;;;;;;;6.10;4.20;;;;;;;-142.91;100.00;56616.03;5085589;28;20730;-80
2023/12/21 11:00:50;;;;;;;14.00;9.13;;;;;;;;;;5087011;28;20206;-72
2023/12/21 11:03:17;;;;;;;9.45;6.32;;;;;;;;;;5085927;28;20709;-74
2023/12/21 11:05:45;;;;;;;15.68;8.07;;;;;;;-142.91;100.00;56616.03;5084991;28;20206;-79
2023/12/21 11:08:11;;;;;;;4.93;3.80;;;;;;;;;;5085578;28;20201;-78
2023/12/21 11:10:38;;;;;;;5.57;4.78;;;;;;;;;;5086490;28;20273;-80
2023/12/21 11:13:05;;;;;;;4.85;4.45;;;;;;;-142.91;100.00;56616.03;5086335;28;20198;-79
2023/12/21 11:15:32;;;;;;;6.13;4.15;;;;;;;-142.91;100.00;56616.03;5086495;28;20285;-78
2023/12/21 11:18:01;;;;;;;4.05;3.65;;;;;;;;;;5067774;28;20281;-79
2023/12/21 11:20:30;;;;;;;8.77;4.88;;;;;;;;;;5080737;28;20301;-78
2023/12/21 11:22:57;;;;;;;7.25;3.47;;;;;;;-142.91;100.00;56616.03;5086789;28;20289;-82
2023/12/21 11:25:24;;;;;;;4.40;3.15;;;;;;;-142.91;100.00;56616.03;5089178;28;20818;-84
2023/12/21 11:27:52;;;;;;;3.88;3.58;;;;;;;-142.91;100.00;56616.03;5090152;28;20229;-82
2023/12/21 11:30:22;;;;;;;3.38;3.10;;;;;;;-142.91;100.00;56616.03;5088349;28;20201;-87
2023/12/21 11:32:48;;;;;;;3.90;3.60;;;;;;;;;;5089236;28;20220;-86